sensor_id;sensor_type;location;lat;lon;timestamp;pressure;altitude;pressure_sealevel;temperature;humidity
23446;BME280;11895;48.738;9.320;2023-01-28T00:01:48;99399.22;;;4.80;100.00
23446;BME280;11895;48.738;9.320;2023-01-28T00:04:17;99388.66;;;4.71;100.00
23446;BME280;11895;48.738;9.320;2023-01-28T00:06:44;99385.97;;;4.74;100.00
23446;BME280;11895;48.738;9.320;2023-01-28T00:09:12;99386.03;;;4.70;100.00
23446;BME280;11895;48.738;9.320;2023-01-28T00:11:40;99387.66;;;4.80;100.00
23446;BME280;11895;48.738;9.320;2023-01-28T00:14:10;99379.66;;;4.78;100.00
23446;BME280;11895;48.738;9.320;2023-01-28T00:16:39;99380.56;;;4.77;100.00
23446;BME280;11895;48.738;9.320;2023-01-28T00:19:06;99383.19;;;4.80;100.00
23446;BME280;11895;48.738;9.320;2023-01-28T00:21:34;99377.97;;;4.71;100.00
23446;BME280;11895;48.738;9.320;2023-01-28T00:24:02;99376.00;;;4.85;100.00
23446;BME280;11895;48.738;9.320;2023-01-28T00:26:30;99370.81;;;4.73;100.00
23446;BME280;11895;48.738;9.320;2023-01-28T00:28:57;99378.03;;;4.67;100.00
23446;BME280;11895;48.738;9.320;2023-01-28T00:31:25;99376.28;;;4.66;100.00
23446;BME280;11895;48.738;9.320;2023-01-28T00:33:55;99370.81;;;4.73;100.00
23446;BME280;11895;48.738;9.320;2023-01-28T00:36:24;99363.97;;;4.54;100.00
23446;BME280;11895;48.738;9.320;2023-01-28T00:38:57;99369.13;;;4.69;100.00
23446;BME280;11895;48.738;9.320;2023-01-28T00:41:28;99365.69;;;4.58;100.00
23446;BME280;11895;48.738;9.320;2023-01-28T00:43:58;99367.44;;;4.62;100.00
23446;BME280;11895;48.738;9.320;2023-01-28T00:46:26;99371.09;;;4.55;100.00
23446;BME280;11895;48.738;9.320;2023-01-28T00:48:54;99362.13;;;4.59;100.00
23446;BME280;11895;48.738;9.320;2023-01-28T00:51:22;99363.94;;;4.57;100.00
23446;BME280;11895;48.738;9.320;2023-01-28T00:53:50;99363.81;;;4.66;100.00
23446;BME280;11895;48.738;9.320;2023-01-28T00:56:18;99360.47;;;4.52;100.00
23446;BME280;11895;48.738;9.320;2023-01-28T00:58:47;99369.19;;;4.63;100.00
23446;BME280;11895;48.738;9.320;2023-01-28T01:01:18;99359.41;;;4.63;100.00
23446;BME280;11895;48.738;9.320;2023-01-28T01:03:47;99370.94;;;4.64;100.00
23446;BME280;11895;48.738;9.320;2023-01-28T01:06:24;99370.78;;;4.76;100.00
23446;BME280;11895;48.738;9.320;2023-01-28T01:08:52;99374.25;;;4.84;100.00
23446;BME280;11895;48.738;9.320;2023-01-28T01:11:20;99370.75;;;4.79;100.00
23446;BME280;11895;48.738;9.320;2023-01-28T01:13:56;99370.75;;;4.79;100.00
23446;BME280;11895;48.738;9.320;2023-01-28T01:16:28;99365.38;;;4.81;100.00
23446;BME280;11895;48.738;9.320;2023-01-28T01:18:58;99374.50;;;4.66;100.00
23446;BME280;11895;48.738;9.320;2023-01-28T01:21:28;99372.53;;;4.80;100.00
23446;BME280;11895;48.738;9.320;2023-01-28T01:23:56;99367.22;;;4.77;100.00
23446;BME280;11895;48.738;9.320;2023-01-28T01:26:25;99374.28;;;4.81;100.00
23446;BME280;11895;48.738;9.320;2023-01-28T01:28:53;99376.25;;;4.67;100.00
23446;BME280;11895;48.738;9.320;2023-01-28T01:31:22;99375.28;;;4.74;100.00
23446;BME280;11895;48.738;9.320;2023-01-28T01:33:50;99369.88;;;4.79;100.00
23446;BME280;11895;48.738;9.320;2023-01-28T01:36:19;99372.94;;;4.50;100.00
23446;BME280;11895;48.738;9.320;2023-01-28T01:38:52;99383.31;;;4.71;100.00
23446;BME280;11895;48.738;9.320;2023-01-28T01:41:28;99370.00;;;4.70;100.00
23446;BME280;11895;48.738;9.320;2023-01-28T01:44:00;99374.38;;;4.75;100.00
23446;BME280;11895;48.738;9.320;2023-01-28T01:46:50;99382.50;;;4.66;100.00
23446;BME280;11895;48.738;9.320;2023-01-28T01:49:21;99394.00;;;4.71;100.00
23446;BME280;11895;48.738;9.320;2023-01-28T01:51:53;99384.13;;;4.76;100.00
23446;BME280;11895;48.738;9.320;2023-01-28T01:54:30;99379.72;;;4.75;100.00
23446;BME280;11895;48.738;9.320;2023-01-28T01:56:59;99384.91;;;4.83;100.00
23446;BME280;11895;48.738;9.320;2023-01-28T01:59:29;99386.66;;;4.87;100.00
23446;BME280;11895;48.738;9.320;2023-01-28T02:02:01;99389.50;;;4.75;100.00
23446;BME280;11895;48.738;9.320;2023-01-28T02:04:40;99388.44;;;4.86;100.00
23446;BME280;11895;48.738;9.320;2023-01-28T02:07:15;99390.13;;;4.94;100.00
23446;BME280;11895;48.738;9.320;2023-01-28T02:09:45;99386.56;;;4.95;100.00
23446;BME280;11895;48.738;9.320;2023-01-28T02:12:20;99388.31;;;4.96;100.00
23446;BME280;11895;48.738;9.320;2023-01-28T02:14:55;99391.97;;;4.88;100.00
23446;BME280;11895;48.738;9.320;2023-01-28T02:17:26;99394.63;;;4.90;100.00
23446;BME280;11895;48.738;9.320;2023-01-28T02:19:58;99392.88;;;4.87;100.00
23446;BME280;11895;48.738;9.320;2023-01-28T02:25:45;99392.88;;;4.87;100.00
23446;BME280;11895;48.738;9.320;2023-01-28T02:39:37;99390.06;;;4.97;100.00
23446;BME280;11895;48.738;9.320;2023-01-28T02:42:13;99394.66;;;4.88;100.00
23446;BME280;11895;48.738;9.320;2023-01-28T02:44:45;99393.66;;;4.96;100.00
23446;BME280;11895;48.738;9.320;2023-01-28T02:47:13;99393.69;;;4.93;100.00
23446;BME280;11895;48.738;9.320;2023-01-28T02:50:19;99392.78;;;4.94;100.00
23446;BME280;11895;48.738;9.320;2023-01-28T02:56:00;99400.72;;;5.00;100.00
23446;BME280;11895;48.738;9.320;2023-01-28T02:58:55;99395.41;;;4.97;100.00
23446;BME280;11895;48.738;9.320;2023-01-28T03:01:48;99399.91;;;4.93;100.00
23446;BME280;11895;48.738;9.320;2023-01-28T03:04:45;99399.13;;;4.86;100.00
23446;BME280;11895;48.738;9.320;2023-01-28T03:07:19;99405.41;;;4.84;100.00
23446;BME280;11895;48.738;9.320;2023-01-28T03:09:48;99407.16;;;4.85;100.00
23446;BME280;11895;48.738;9.320;2023-01-28T03:12:21;99404.53;;;4.80;100.00
23446;BME280;11895;48.738;9.320;2023-01-28T03:15:21;99416.84;;;4.90;100.00
23446;BME280;11895;48.738;9.320;2023-01-28T03:21:09;99406.09;;;4.97;100.00
23446;BME280;11895;48.738;9.320;2023-01-28T03:24:04;99404.41;;;4.89;100.00
23446;BME280;11895;48.738;9.320;2023-01-28T03:29:58;99396.34;;;4.94;100.00
23446;BME280;11895;48.738;9.320;2023-01-28T03:32:47;99408.00;;;4.87;100.00
23446;BME280;11895;48.738;9.320;2023-01-28T03:35:36;99400.84;;;4.90;100.00
23446;BME280;11895;48.738;9.320;2023-01-28T03:38:24;99406.19;;;4.90;100.00
23446;BME280;11895;48.738;9.320;2023-01-28T03:41:19;99403.44;;;4.95;100.00
23446;BME280;11895;48.738;9.320;2023-01-28T03:43:49;99415.00;;;4.96;100.00
23446;BME280;11895;48.738;9.320;2023-01-28T03:46:17;99411.63;;;4.84;100.00
23446;BME280;11895;48.738;9.320;2023-01-28T03:48:45;99410.69;;;4.85;100.00
23446;BME280;11895;48.738;9.320;2023-01-28T03:51:14;99418.53;;;4.98;100.00
23446;BME280;11895;48.738;9.320;2023-01-28T03:53:42;99423.00;;;4.96;100.00
23446;BME280;11895;48.738;9.320;2023-01-28T03:56:11;99426.66;;;4.90;100.00
23446;BME280;11895;48.738;9.320;2023-01-28T03:58:45;99427.41;;;5.00;100.00
23446;BME280;11895;48.738;9.320;2023-01-28T04:01:22;99423.94;;;4.95;100.00
23446;BME280;11895;48.738;9.320;2023-01-28T04:03:51;99420.44;;;4.88;100.00
23446;BME280;11895;48.738;9.320;2023-01-28T04:06:24;99420.56;;;4.80;100.00
23446;BME280;11895;48.738;9.320;2023-01-28T04:09:11;99413.25;;;4.95;100.00
23446;BME280;11895;48.738;9.320;2023-01-28T04:11:47;99420.44;;;4.89;100.00
23446;BME280;11895;48.738;9.320;2023-01-28T04:14:22;99408.19;;;4.73;100.00
23446;BME280;11895;48.738;9.320;2023-01-28T04:16:58;99426.78;;;4.81;100.00
23446;BME280;11895;48.738;9.320;2023-01-28T04:19:26;99420.59;;;4.77;100.00
23446;BME280;11895;48.738;9.320;2023-01-28T04:21:56;99423.19;;;4.82;100.00
23446;BME280;11895;48.738;9.320;2023-01-28T04:24:25;99423.25;;;4.77;100.00
23446;BME280;11895;48.738;9.320;2023-01-28T04:26:53;99424.13;;;4.79;100.00
23446;BME280;11895;48.738;9.320;2023-01-28T04:29:24;99436.50;;;4.83;100.00
23446;BME280;11895;48.738;9.320;2023-01-28T04:31:55;99445.38;;;4.88;100.00
23446;BME280;11895;48.738;9.320;2023-01-28T04:34:35;99445.31;;;4.92;100.00
23446;BME280;11895;48.738;9.320;2023-01-28T04:37:26;99442.78;;;4.81;100.00
23446;BME280;11895;48.738;9.320;2023-01-28T04:40:25;99448.91;;;4.87;100.00
23446;BME280;11895;48.738;9.320;2023-01-28T04:43:01;99445.59;;;4.70;100.00
23446;BME280;11895;48.738;9.320;2023-01-28T04:45:40;99452.63;;;4.79;100.00
23446;BME280;11895;48.738;9.320;2023-01-28T04:48:28;99457.75;;;4.93;100.00
23446;BME280;11895;48.738;9.320;2023-01-28T04:51:16;99465.06;;;4.80;100.00
23446;BME280;11895;48.738;9.320;2023-01-28T04:54:05;99459.59;;;4.87;100.00
23446;BME280;11895;48.738;9.320;2023-01-28T04:56:34;99461.50;;;4.79;100.00
23446;BME280;11895;48.738;9.320;2023-01-28T04:59:03;99459.72;;;4.78;100.00
23446;BME280;11895;48.738;9.320;2023-01-28T05:01:32;99465.00;;;4.84;100.00
23446;BME280;11895;48.738;9.320;2023-01-28T05:04:00;99457.03;;;4.80;100.00
23446;BME280;11895;48.738;9.320;2023-01-28T05:06:34;99457.03;;;4.80;100.00
23446;BME280;11895;48.738;9.320;2023-01-28T05:09:16;99454.38;;;4.78;100.00
23446;BME280;11895;48.738;9.320;2023-01-28T05:11:50;99459.66;;;4.83;100.00
23446;BME280;11895;48.738;9.320;2023-01-28T05:14:18;99457.84;;;4.86;100.00
23446;BME280;11895;48.738;9.320;2023-01-28T05:16:54;99453.44;;;4.84;100.00
23446;BME280;11895;48.738;9.320;2023-01-28T05:19:22;99454.25;;;4.87;100.00
23446;BME280;11895;48.738;9.320;2023-01-28T05:21:50;99458.69;;;4.90;100.00
23446;BME280;11895;48.738;9.320;2023-01-28T05:24:38;99460.41;;;4.93;100.00
23446;BME280;11895;48.738;9.320;2023-01-28T05:27:05;99461.31;;;4.95;100.00
23446;BME280;11895;48.738;9.320;2023-01-28T05:29:34;99465.00;;;4.84;100.00
23446;BME280;11895;48.738;9.320;2023-01-28T05:32:01;99458.84;;;4.79;100.00
23446;BME280;11895;48.738;9.320;2023-01-28T05:34:30;99458.72;;;4.87;100.00
23446;BME280;11895;48.738;9.320;2023-01-28T05:37:02;99457.97;;;4.77;100.00
23446;BME280;11895;48.738;9.320;2023-01-28T05:39:36;99458.94;;;4.69;100.00
23446;BME280;11895;48.738;9.320;2023-01-28T05:42:04;99459.66;;;4.84;100.00
23446;BME280;11895;48.738;9.320;2023-01-28T05:44:40;99463.28;;;4.77;100.00
23446;BME280;11895;48.738;9.320;2023-01-28T05:47:15;99461.44;;;4.82;100.00
23446;BME280;11895;48.738;9.320;2023-01-28T05:50:13;99468.63;;;4.77;100.00
23446;BME280;11895;48.738;9.320;2023-01-28T05:53:05;99464.94;;;4.87;100.00
23446;BME280;11895;48.738;9.320;2023-01-28T05:55:36;99466.75;;;4.85;100.00
23446;BME280;11895;48.738;9.320;2023-01-28T05:58:04;99463.25;;;4.80;100.00
23446;BME280;11895;48.738;9.320;2023-01-28T06:00:36;99466.66;;;4.92;100.00
23446;BME280;11895;48.738;9.320;2023-01-28T06:03:04;99470.25;;;4.90;100.00
23446;BME280;11895;48.738;9.320;2023-01-28T06:05:34;99473.06;;;4.78;100.00
23446;BME280;11895;48.738;9.320;2023-01-28T06:08:03;99476.41;;;4.96;100.00
23446;BME280;11895;48.738;9.320;2023-01-28T06:10:31;99483.56;;;4.94;100.00
23446;BME280;11895;48.738;9.320;2023-01-28T06:12:59;99480.03;;;4.90;100.00
23446;BME280;11895;48.738;9.320;2023-01-28T06:15:48;99479.19;;;4.86;100.00
23446;BME280;11895;48.738;9.320;2023-01-28T06:18:24;99484.56;;;4.83;100.00
23446;BME280;11895;48.738;9.320;2023-01-28T06:20:53;99487.41;;;4.71;100.00
23446;BME280;11895;48.738;9.320;2023-01-28T06:23:21;99490.94;;;4.72;100.00
23446;BME280;11895;48.738;9.320;2023-01-28T06:25:55;99494.38;;;4.81;100.00
23446;BME280;11895;48.738;9.320;2023-01-28T06:28:24;99498.91;;;4.73;100.00
23446;BME280;11895;48.738;9.320;2023-01-28T06:30:52;99502.56;;;4.69;100.00
23446;BME280;11895;48.738;9.320;2023-01-28T06:33:21;99512.28;;;4.75;100.00
23446;BME280;11895;48.738;9.320;2023-01-28T06:35:50;99518.38;;;4.83;100.00
23446;BME280;11895;48.738;9.320;2023-01-28T06:38:18;99525.56;;;4.79;100.00
23446;BME280;11895;48.738;9.320;2023-01-28T06:40:53;99521.19;;;4.72;100.00
23446;BME280;11895;48.738;9.320;2023-01-28T06:43:22;99517.63;;;4.75;100.00
23446;BME280;11895;48.738;9.320;2023-01-28T06:45:57;99525.47;;;4.88;100.00
23446;BME280;11895;48.738;9.320;2023-01-28T06:48:26;99520.06;;;4.92;100.00
23446;BME280;11895;48.738;9.320;2023-01-28T06:50:54;99528.03;;;4.93;100.00
23446;BME280;11895;48.738;9.320;2023-01-28T06:53:22;99529.00;;;4.89;100.00
23446;BME280;11895;48.738;9.320;2023-01-28T06:55:50;99535.34;;;4.80;100.00
23446;BME280;11895;48.738;9.320;2023-01-28T06:58:18;99543.44;;;4.71;100.00
23446;BME280;11895;48.738;9.320;2023-01-28T07:01:20;99539.06;;;4.64;100.00
23446;BME280;11895;48.738;9.320;2023-01-28T07:03:48;99539.13;;;4.61;100.00
23446;BME280;11895;48.738;9.320;2023-01-28T07:06:16;99547.84;;;4.74;100.00
23446;BME280;11895;48.738;9.320;2023-01-28T07:08:44;99540.72;;;4.76;100.00
23446;BME280;11895;48.738;9.320;2023-01-28T07:11:12;99539.03;;;4.67;100.00
23446;BME280;11895;48.738;9.320;2023-01-28T07:13:40;99541.53;;;4.82;100.00
23446;BME280;11895;48.738;9.320;2023-01-28T07:16:07;99543.25;;;4.86;100.00
23446;BME280;11895;48.738;9.320;2023-01-28T07:18:35;99544.13;;;4.90;100.00
23446;BME280;11895;48.738;9.320;2023-01-28T07:21:03;99550.31;;;4.92;100.00
23446;BME280;11895;48.738;9.320;2023-01-28T07:23:31;99551.19;;;4.94;100.00
23446;BME280;11895;48.738;9.320;2023-01-28T07:26:02;99556.53;;;4.94;100.00
23446;BME280;11895;48.738;9.320;2023-01-28T07:28:31;99554.72;;;4.93;100.00
23446;BME280;11895;48.738;9.320;2023-01-28T07:30:58;99562.69;;;4.99;100.00
23446;BME280;11895;48.738;9.320;2023-01-28T07:33:26;99553.72;;;5.05;100.00
23446;BME280;11895;48.738;9.320;2023-01-28T07:35:54;99560.78;;;5.09;100.00
23446;BME280;11895;48.738;9.320;2023-01-28T07:38:21;99566.25;;;5.00;100.00
23446;BME280;11895;48.738;9.320;2023-01-28T07:40:49;99567.00;;;5.11;100.00
23446;BME280;11895;48.738;9.320;2023-01-28T07:43:17;99565.16;;;5.18;100.00
23446;BME280;11895;48.738;9.320;2023-01-28T07:45:45;99562.63;;;5.05;100.00
23446;BME280;11895;48.738;9.320;2023-01-28T07:48:15;99558.88;;;5.20;100.00
23446;BME280;11895;48.738;9.320;2023-01-28T07:50:42;99561.63;;;5.12;100.00
23446;BME280;11895;48.738;9.320;2023-01-28T07:53:11;99572.25;;;5.19;100.00
23446;BME280;11895;48.738;9.320;2023-01-28T07:55:39;99573.84;;;5.33;100.00
23446;BME280;11895;48.738;9.320;2023-01-28T07:58:08;99571.06;;;5.39;100.00
23446;BME280;11895;48.738;9.320;2023-01-28T08:00:40;99568.28;;;5.49;100.00
23446;BME280;11895;48.738;9.320;2023-01-28T08:03:13;99576.28;;;5.49;100.00
23446;BME280;11895;48.738;9.320;2023-01-28T08:05:46;99580.56;;;5.62;100.00
23446;BME280;11895;48.738;9.320;2023-01-28T08:08:16;99580.47;;;5.68;100.00
23446;BME280;11895;48.738;9.320;2023-01-28T08:10:49;99585.09;;;5.57;100.00
23446;BME280;11895;48.738;9.320;2023-01-28T08:13:18;99584.00;;;5.72;100.00
23446;BME280;11895;48.738;9.320;2023-01-28T08:15:46;99591.94;;;5.76;100.00
23446;BME280;11895;48.738;9.320;2023-01-28T08:18:15;99592.72;;;5.83;100.00
23446;BME280;11895;48.738;9.320;2023-01-28T08:20:43;99575.69;;;5.88;100.00
23446;BME280;11895;48.738;9.320;2023-01-28T08:23:18;99587.09;;;6.03;100.00
23446;BME280;11895;48.738;9.320;2023-01-28T08:25:47;99595.34;;;5.87;100.00
23446;BME280;11895;48.738;9.320;2023-01-28T08:28:16;99580.81;;;6.07;100.00
23446;BME280;11895;48.738;9.320;2023-01-28T08:30:44;99589.38;;;6.27;100.00
23446;BME280;11895;48.738;9.320;2023-01-28T08:33:13;99591.25;;;6.22;100.00
23446;BME280;11895;48.738;9.320;2023-01-28T08:35:42;99587.66;;;6.23;100.00
23446;BME280;11895;48.738;9.320;2023-01-28T08:38:11;99593.97;;;6.21;100.00
23446;BME280;11895;48.738;9.320;2023-01-28T08:40:41;99590.59;;;6.09;100.00
23446;BME280;11895;48.738;9.320;2023-01-28T08:43:09;99596.63;;;6.21;100.00
23446;BME280;11895;48.738;9.320;2023-01-28T08:45:39;99592.19;;;6.18;100.00
23446;BME280;11895;48.738;9.320;2023-01-28T08:48:10;99593.66;;;6.39;100.00
23446;BME280;11895;48.738;9.320;2023-01-28T08:50:43;99596.28;;;6.40;100.00
23446;BME280;11895;48.738;9.320;2023-01-28T08:53:16;99594.63;;;6.33;100.00
23446;BME280;11895;48.738;9.320;2023-01-28T08:55:46;99594.88;;;6.18;100.00
23446;BME280;11895;48.738;9.320;2023-01-28T08:58:16;99594.84;;;6.21;100.00
23446;BME280;11895;48.738;9.320;2023-01-28T09:00:46;99599.88;;;6.39;100.00
23446;BME280;11895;48.738;9.320;2023-01-28T09:03:16;99600.66;;;6.46;100.00
23446;BME280;11895;48.738;9.320;2023-01-28T09:05:44;99600.56;;;6.51;100.00
23446;BME280;11895;48.738;9.320;2023-01-28T09:08:13;99602.16;;;6.62;100.00
23446;BME280;11895;48.738;9.320;2023-01-28T09:10:42;99602.97;;;6.66;100.00
23446;BME280;11895;48.738;9.320;2023-01-28T09:13:15;99595.97;;;6.59;100.00
23446;BME280;11895;48.738;9.320;2023-01-28T09:15:43;99601.88;;;6.78;100.00
23446;BME280;11895;48.738;9.320;2023-01-28T09:18:11;99605.34;;;6.83;100.00
23446;BME280;11895;48.738;9.320;2023-01-28T09:20:39;99612.47;;;6.84;100.00
23446;BME280;11895;48.738;9.320;2023-01-28T09:23:07;99613.72;;;7.12;100.00
23446;BME280;11895;48.738;9.320;2023-01-28T09:25:36;99612.81;;;7.12;100.00
23446;BME280;11895;48.738;9.320;2023-01-28T09:28:04;99619.69;;;7.27;100.00
23446;BME280;11895;48.738;9.320;2023-01-28T09:30:32;99611.47;;;7.34;100.00
23446;BME280;11895;48.738;9.320;2023-01-28T09:33:04;99620.59;;;7.24;100.00
23446;BME280;11895;48.738;9.320;2023-01-28T09:35:33;99628.72;;;7.19;100.00
23446;BME280;11895;48.738;9.320;2023-01-28T09:38:01;99633.63;;;7.42;100.00
23446;BME280;11895;48.738;9.320;2023-01-28T09:40:33;99625.03;;;7.25;100.00
23446;BME280;11895;48.738;9.320;2023-01-28T09:45:59;99630.09;;;6.97;100.00
23446;BME280;11895;48.738;9.320;2023-01-28T09:48:39;99636.59;;;7.29;100.00
23446;BME280;11895;48.738;9.320;2023-01-28T09:54:22;99647.78;;;7.51;100.00
23446;BME280;11895;48.738;9.320;2023-01-28T09:57:23;99634.81;;;7.71;100.00
23446;BME280;11895;48.738;9.320;2023-01-28T09:59:52;99640.38;;;7.62;100.00
23446;BME280;11895;48.738;9.320;2023-01-28T10:15:17;99647.88;;;7.44;100.00
23446;BME280;11895;48.738;9.320;2023-01-28T10:17:51;99635.34;;;7.46;100.00
23446;BME280;11895;48.738;9.320;2023-01-28T10:21:05;99636.97;;;7.54;100.00
23446;BME280;11895;48.738;9.320;2023-01-28T10:23:40;99638.47;;;7.24;100.00
23446;BME280;11895;48.738;9.320;2023-01-28T10:26:25;99632.84;;;7.37;100.00
23446;BME280;11895;48.738;9.320;2023-01-28T10:29:02;99627.31;;;7.02;100.00
23446;BME280;11895;48.738;9.320;2023-01-28T10:31:58;99616.69;;;6.97;100.00
23446;BME280;11895;48.738;9.320;2023-01-28T10:34:31;99623.88;;;7.38;100.00
23446;BME280;11895;48.738;9.320;2023-01-28T10:36:58;99624.56;;;7.50;100.00
23446;BME280;11895;48.738;9.320;2023-01-28T10:39:28;99619.94;;;7.56;100.00
23446;BME280;11895;48.738;9.320;2023-01-28T10:41:56;99625.41;;;7.52;100.00
23446;BME280;11895;48.738;9.320;2023-01-28T10:44:35;99623.66;;;7.51;100.00
23446;BME280;11895;48.738;9.320;2023-01-28T10:47:13;99620.00;;;7.55;100.00
23446;BME280;11895;48.738;9.320;2023-01-28T10:49:58;99614.72;;;7.07;100.00
23446;BME280;11895;48.738;9.320;2023-01-28T10:52:31;99614.09;;;7.37;100.00
23446;BME280;11895;48.738;9.320;2023-01-28T10:55:04;99611.66;;;7.67;100.00
23446;BME280;11895;48.738;9.320;2023-01-28T10:57:41;99614.84;;;7.84;100.00
23446;BME280;11895;48.738;9.320;2023-01-28T11:00:11;99610.56;;;7.76;100.00
23446;BME280;11895;48.738;9.320;2023-01-28T11:02:49;99610.94;;;7.97;100.00
23446;BME280;11895;48.738;9.320;2023-01-28T11:08:24;99619.00;;;7.99;100.00
23446;BME280;11895;48.738;9.320;2023-01-28T11:10:55;99622.44;;;8.04;100.00
23446;BME280;11895;48.738;9.320;2023-01-28T11:13:27;99627.75;;;7.67;100.00
23446;BME280;11895;48.738;9.320;2023-01-28T11:16:13;99627.53;;;6.89;100.00
23446;BME280;11895;48.738;9.320;2023-01-28T11:21:29;99623.84;;;7.41;100.00
23446;BME280;11895;48.738;9.320;2023-01-28T11:24:20;99626.44;;;7.44;100.00
23446;BME280;11895;48.738;9.320;2023-01-28T11:26:49;99629.59;;;7.65;100.00
23446;BME280;11895;48.738;9.320;2023-01-28T11:29:31;99624.94;;;7.31;100.00
23446;BME280;11895;48.738;9.320;2023-01-28T11:32:01;99626.88;;;7.66;100.00
23446;BME280;11895;48.738;9.320;2023-01-28T11:34:32;99634.69;;;7.34;100.00
23446;BME280;11895;48.738;9.320;2023-01-28T11:37:03;99629.59;;;7.65;100.00
23446;BME280;11895;48.738;9.320;2023-01-28T11:39:39;99634.06;;;7.64;100.00
23446;BME280;11895;48.738;9.320;2023-01-28T11:42:17;99633.25;;;7.61;100.00
23446;BME280;11895;48.738;9.320;2023-01-28T11:44:47;99626.81;;;7.68;100.00
23446;BME280;11895;48.738;9.320;2023-01-28T11:50:38;99632.63;;;7.48;100.00
23446;BME280;11895;48.738;9.320;2023-01-28T11:53:41;99632.00;;;7.35;100.00
23446;BME280;11895;48.738;9.320;2023-01-28T12:05:38;99635.66;;;7.31;100.00
23446;BME280;11895;48.738;9.320;2023-01-28T12:08:23;99623.03;;;7.36;100.00
23446;BME280;11895;48.738;9.320;2023-01-28T12:40:53;99627.84;;;7.20;100.00
23446;BME280;11895;48.738;9.320;2023-01-28T12:52:20;99628.69;;;7.22;100.00
23446;BME280;11895;48.738;9.320;2023-01-28T12:57:41;99629.28;;;6.90;100.00
23446;BME280;11895;48.738;9.320;2023-01-28T13:00:33;99611.28;;;6.99;100.00
23446;BME280;11895;48.738;9.320;2023-01-28T13:03:26;99615.94;;;6.89;100.00
23446;BME280;11895;48.738;9.320;2023-01-28T13:06:01;99614.94;;;6.94;100.00
23446;BME280;11895;48.738;9.320;2023-01-28T13:08:33;99623.41;;;7.18;100.00
23446;BME280;11895;48.738;9.320;2023-01-28T13:11:03;99622.56;;;7.16;100.00
23446;BME280;11895;48.738;9.320;2023-01-28T13:13:37;99622.53;;;7.17;100.00
23446;BME280;11895;48.738;9.320;2023-01-28T13:16:09;99625.53;;;7.01;100.00
23446;BME280;11895;48.738;9.320;2023-01-28T13:26:43;99624.16;;;7.26;100.00
23446;BME280;11895;48.738;9.320;2023-01-28T13:31:54;99610.94;;;7.17;100.00
23446;BME280;11895;48.738;9.320;2023-01-28T13:42:41;99612.69;;;7.18;100.00
23446;BME280;11895;48.738;9.320;2023-01-28T13:45:29;99624.25;;;7.20;100.00
23446;BME280;11895;48.738;9.320;2023-01-28T13:48:28;99625.13;;;7.22;100.00
23446;BME280;11895;48.738;9.320;2023-01-28T13:51:00;99618.19;;;7.55;100.00
23446;BME280;11895;48.738;9.320;2023-01-28T13:56:31;99629.94;;;7.50;100.00
23446;BME280;11895;48.738;9.320;2023-01-28T14:17:33;99650.69;;;6.93;100.00
23446;BME280;11895;48.738;9.320;2023-01-28T14:20:39;99647.63;;;6.64;100.00
23446;BME280;11895;48.738;9.320;2023-01-28T14:23:16;99651.31;;;6.57;100.00
23446;BME280;11895;48.738;9.320;2023-01-28T14:28:44;99660.22;;;6.59;100.00
23446;BME280;11895;48.738;9.320;2023-01-28T14:31:26;99659.50;;;6.48;100.00
23446;BME280;11895;48.738;9.320;2023-01-28T14:34:26;99666.16;;;6.76;100.00
23446;BME280;11895;48.738;9.320;2023-01-28T14:37:08;99679.28;;;6.91;100.00
23446;BME280;11895;48.738;9.320;2023-01-28T14:39:55;99661.19;;;7.04;100.00
23446;BME280;11895;48.738;9.320;2023-01-28T14:48:25;99673.03;;;6.91;100.00
23446;BME280;11895;48.738;9.320;2023-01-28T14:54:29;99685.03;;;6.11;100.00
23446;BME280;11895;48.738;9.320;2023-01-28T15:00:22;99690.88;;;6.39;100.00
23446;BME280;11895;48.738;9.320;2023-01-28T15:02:53;99695.19;;;6.47;100.00
23446;BME280;11895;48.738;9.320;2023-01-28T15:05:24;99696.94;;;6.51;100.00
23446;BME280;11895;48.738;9.320;2023-01-28T15:07:57;99696.28;;;6.33;100.00
23446;BME280;11895;48.738;9.320;2023-01-28T15:10:35;99698.47;;;6.10;100.00
23446;BME280;11895;48.738;9.320;2023-01-28T15:13:08;99695.28;;;6.42;100.00
23446;BME280;11895;48.738;9.320;2023-01-28T15:15:41;99699.97;;;6.26;100.00
23446;BME280;11895;48.738;9.320;2023-01-28T15:20:48;99711.38;;;6.40;100.00
23446;BME280;11895;48.738;9.320;2023-01-28T15:23:22;99705.16;;;6.37;100.00
23446;BME280;11895;48.738;9.320;2023-01-28T15:25:52;99712.19;;;6.46;100.00
23446;BME280;11895;48.738;9.320;2023-01-28T15:28:30;99713.69;;;6.62;100.00
23446;BME280;11895;48.738;9.320;2023-01-28T15:30:59;99714.69;;;6.56;100.00
23446;BME280;11895;48.738;9.320;2023-01-28T15:33:27;99708.59;;;6.47;100.00
23446;BME280;11895;48.738;9.320;2023-01-28T15:35:56;99718.72;;;6.26;100.00
23446;BME280;11895;48.738;9.320;2023-01-28T15:38:27;99714.03;;;6.40;100.00
23446;BME280;11895;48.738;9.320;2023-01-28T15:41:00;99715.78;;;6.44;100.00
23446;BME280;11895;48.738;9.320;2023-01-28T15:43:34;99719.44;;;6.39;100.00
23446;BME280;11895;48.738;9.320;2023-01-28T15:46:10;99727.25;;;6.53;100.00
23446;BME280;11895;48.738;9.320;2023-01-28T15:48:46;99723.75;;;6.46;100.00
23446;BME280;11895;48.738;9.320;2023-01-28T15:51:23;99728.00;;;6.61;100.00
23446;BME280;11895;48.738;9.320;2023-01-28T15:54:04;99731.53;;;6.63;100.00
23446;BME280;11895;48.738;9.320;2023-01-28T15:56:36;99734.41;;;6.51;100.00
23446;BME280;11895;48.738;9.320;2023-01-28T15:59:27;99733.69;;;6.39;100.00
23446;BME280;11895;48.738;9.320;2023-01-28T16:02:17;99730.16;;;6.36;100.00
23446;BME280;11895;48.738;9.320;2023-01-28T16:05:00;99739.41;;;6.15;100.00
23446;BME280;11895;48.738;9.320;2023-01-28T16:07:42;99744.44;;;6.36;100.00
23446;BME280;11895;48.738;9.320;2023-01-28T16:10:25;99745.50;;;6.23;100.00
23446;BME280;11895;48.738;9.320;2023-01-28T16:13:11;99747.41;;;6.15;100.00
23446;BME280;11895;48.738;9.320;2023-01-28T16:16:03;99742.25;;;6.01;100.00
23446;BME280;11895;48.738;9.320;2023-01-28T16:21:26;99742.22;;;6.03;100.00